Time;durP1;ratioP1;P1;durP2;ratioP2;P2;SDS_P1;SDS_P2;PMS_P1;PMS_P2;Temp;Humidity;BMP_temperature;BMP_pressure;BME280_temperature;BME280_humidity;BME280_pressure;Samples;Min_cycle;Max_cycle;Signal;HPM_P1;HPM_P2
2022/11/03 00:01:36;;;;;;;16.00;8.93;;;10.10;73.60;;;;;;5028608;28;20506;-74
2022/11/03 00:04:04;;;;;;;15.43;6.90;;;10.10;73.60;;;;;;5030325;28;20528;-76
2022/11/03 00:06:32;;;;;;;11.10;6.20;;;10.10;73.40;;;;;;5029749;28;20635;-76
2022/11/03 00:09:01;;;;;;;14.40;5.47;;;10.00;73.20;;;;;;5029189;28;20491;-76
2022/11/03 00:11:31;;;;;;;12.80;5.93;;;9.90;73.30;;;;;;5027653;28;20502;-76
2022/11/03 00:13:59;;;;;;;13.47;5.70;;;9.80;73.40;;;;;;5029094;28;20479;-76
2022/11/03 00:16:27;;;;;;;16.60;5.70;;;9.70;73.60;;;;;;5029939;28;20455;-75
2022/11/03 00:18:57;;;;;;;12.83;5.63;;;9.70;73.80;;;;;;5028069;28;20459;-75
2022/11/03 00:21:25;;;;;;;13.07;5.13;;;9.80;74.00;;;;;;5027801;28;20454;-75
2022/11/03 00:23:53;;;;;;;13.00;5.40;;;9.80;74.00;;;;;;5030488;28;20491;-75
2022/11/03 00:26:22;;;;;;;10.60;5.17;;;9.80;74.10;;;;;;5025026;28;20471;-75
2022/11/03 00:28:51;;;;;;;13.43;5.03;;;9.80;74.10;;;;;;5028084;28;20496;-75
2022/11/03 00:31:21;;;;;;;11.03;5.80;;;9.80;74.20;;;;;;5028380;28;20513;-75
2022/11/03 00:33:50;;;;;;;10.23;5.50;;;9.90;74.20;;;;;;5026977;28;20526;-74
2022/11/03 00:36:21;;;;;;;9.60;5.00;;;9.80;74.00;;;;;;5024174;28;20456;-75
2022/11/03 00:38:49;;;;;;;10.50;5.50;;;9.80;74.00;;;;;;5027622;28;20460;-74
2022/11/03 00:41:20;;;;;;;14.40;5.90;;;9.80;74.00;;;;;;5026986;28;20455;-74
2022/11/03 00:43:48;;;;;;;13.80;5.73;;;9.80;74.00;;;;;;5026921;28;20568;-74
2022/11/03 00:46:17;;;;;;;10.10;5.60;;;9.80;74.00;;;;;;5030464;28;20486;-74
2022/11/03 00:48:45;;;;;;;16.30;6.27;;;9.80;74.00;;;;;;5024136;28;20452;-74
2022/11/03 00:51:15;;;;;;;14.50;6.87;;;9.70;73.90;;;;;;5026893;28;20469;-74
2022/11/03 00:53:46;;;;;;;12.07;6.20;;;9.70;73.90;;;;;;5024224;28;21117;-75
2022/11/03 00:56:16;;;;;;;10.33;5.20;;;9.70;73.90;;;;;;5025651;28;20452;-76
2022/11/03 00:58:45;;;;;;;14.10;6.03;;;9.70;73.90;;;;;;5025387;28;20522;-73
2022/11/03 01:01:14;;;;;;;45.93;5.80;;;9.70;73.90;;;;;;5026665;28;20533;-74
2022/11/03 01:06:48;;;;;;;13.00;5.70;;;9.70;74.00;;;;;;5024078;28;20472;-77
2022/11/03 01:06:52;;;;;;;13.33;5.03;;;9.70;74.00;;;;;;5028825;28;21082;-76
2022/11/03 01:09:23;;;;;;;9.60;5.10;;;9.70;74.00;;;;;;5022687;28;20455;-77
2022/11/03 01:11:56;;;;;;;13.23;5.07;;;9.70;74.00;;;;;;5027503;28;20508;-76
2022/11/03 01:14:26;;;;;;;9.37;5.07;;;9.60;74.00;;;;;;5025264;28;20478;-76
2022/11/03 01:16:55;;;;;;;13.53;4.80;;;9.60;74.00;;;;;;5026705;28;20448;-76
2022/11/03 01:19:24;;;;;;;12.07;5.27;;;9.60;74.00;;;;;;5026314;28;20474;-77
2022/11/03 01:21:52;;;;;;;46.17;21.57;;;9.60;74.00;;;;;;5024642;28;20467;-76
2022/11/03 01:24:22;;;;;;;36.33;16.40;;;9.60;74.00;;;;;;5025329;28;20482;-77
2022/11/03 01:26:50;;;;;;;58.80;22.80;;;9.60;74.00;;;;;;5028102;28;20483;-74
2022/11/03 01:29:18;;;;;;;61.80;26.37;;;9.60;74.00;;;;;;5025721;28;20455;-75
2022/11/03 01:31:47;;;;;;;50.10;21.37;;;9.60;74.00;;;;;;5028316;28;20460;-76
2022/11/03 01:34:17;;;;;;;35.13;18.23;;;9.60;74.00;;;;;;5027937;28;21020;-77
2022/11/03 01:36:46;;;;;;;27.47;12.90;;;9.60;74.00;;;;;;5025965;28;20534;-76
2022/11/03 01:39:16;;;;;;;30.80;12.03;;;9.60;73.90;;;;;;5029818;28;20455;-76
2022/11/03 01:41:48;;;;;;;23.00;10.30;;;9.50;73.90;;;;;;5023801;28;20816;-77
2022/11/03 01:44:29;;;;;;;18.03;8.20;;;9.50;73.80;;;;;;5024229;28;20481;-77
2022/11/03 01:47:04;;;;;;;22.50;10.30;;;9.50;73.90;;;;;;5027157;28;20488;-77
2022/11/03 01:49:38;;;;;;;20.67;9.30;;;9.50;73.90;;;;;;5025056;28;20517;-75
2022/11/03 01:52:11;;;;;;;14.97;7.13;;;9.50;73.90;;;;;;5030038;28;20444;-76
2022/11/03 01:54:40;;;;;;;19.73;7.77;;;9.50;73.90;;;;;;5025726;28;20907;-76
2022/11/03 01:57:13;;;;;;;17.73;7.07;;;9.40;73.80;;;;;;5023625;28;21263;-75
2022/11/03 01:59:42;;;;;;;17.50;7.50;;;9.40;73.80;;;;;;5024496;28;20443;-77
2022/11/03 02:02:10;;;;;;;19.30;7.57;;;9.40;73.70;;;;;;5023598;28;20553;-76
2022/11/03 02:04:39;;;;;;;14.73;6.70;;;9.40;73.70;;;;;;5026353;28;21118;-76
2022/11/03 02:07:17;;;;;;;18.70;7.33;;;9.40;73.70;;;;;;5029383;28;20510;-77
2022/11/03 02:09:45;;;;;;;60.83;20.27;;;9.30;73.70;;;;;;5029016;28;20510;-76
2022/11/03 02:12:16;;;;;;;51.13;19.67;;;9.30;73.70;;;;;;5031945;28;20464;-75
2022/11/03 02:14:49;;;;;;;58.13;22.93;;;9.30;73.70;;;;;;5028709;28;20878;-77
2022/11/03 02:17:20;;;;;;;41.73;16.47;;;9.30;73.70;;;;;;5027253;28;20515;-74
2022/11/03 02:19:53;;;;;;;25.60;11.70;;;9.30;73.70;;;;;;5031908;28;20491;-76
2022/11/03 02:22:46;;;;;;;31.03;11.27;;;9.30;73.70;;;;;;5029606;28;20454;-76
2022/11/03 02:25:19;;;;;;;14.50;6.40;;;9.30;73.60;;;;;;5027440;28;20471;-76
2022/11/03 02:27:49;;;;;;;11.83;5.70;;;9.20;73.60;;;;;;5027117;28;20849;-76
2022/11/03 02:30:17;;;;;;;8.97;4.53;;;9.20;73.60;;;;;;5043579;28;20470;-76
2022/11/03 02:32:55;;;;;;;13.27;4.53;;;9.20;73.60;;;;;;5029733;28;20452;-77
2022/11/03 02:35:29;;;;;;;16.03;5.70;;;9.20;73.80;;;;;;5032117;28;20466;-76
2022/11/03 02:38:01;;;;;;;8.63;4.72;;;9.20;73.80;;;;;;5029794;28;20445;-76
2022/11/03 02:40:32;;;;;;;10.97;5.37;;;9.20;73.80;;;;;;5028962;28;20957;-76
2022/11/03 02:43:03;;;;;;;14.03;6.40;;;9.20;73.80;;;;;;5025347;28;20471;-77
2022/11/03 02:45:32;;;;;;;20.15;8.63;;;9.20;73.80;;;;;;5027328;28;20566;-77
2022/11/03 02:48:02;;;;;;;22.73;8.67;;;9.10;73.60;;;;;;5026209;28;20239;-77
2022/11/03 02:50:33;;;;;;;77.18;30.98;;;9.10;73.60;;;;;;5028308;28;20456;-76
2022/11/03 02:53:01;;;;;;;50.13;22.50;;;9.10;73.80;;;;;;5028382;28;20255;-77
2022/11/03 02:55:37;;;;;;;25.13;11.30;;;9.10;73.80;;;;;;5029317;28;20256;-76
2022/11/03 02:58:15;;;;;;;11.60;5.20;;;9.00;73.80;;;;;;5030307;28;20824;-76
2022/11/03 03:00:49;;;;;;;11.27;5.60;;;9.00;73.80;;;;;;5027382;28;20458;-76
2022/11/03 03:03:24;;;;;;;14.93;6.73;;;9.00;73.80;;;;;;5026297;28;20493;-77
2022/11/03 03:05:56;;;;;;;12.65;5.47;;;9.00;73.70;;;;;;5030114;28;20451;-76
2022/11/03 03:08:26;;;;;;;13.90;6.37;;;8.90;73.80;;;;;;5031382;28;20198;-76
2022/11/03 03:10:57;;;;;;;11.90;5.73;;;8.90;73.90;;;;;;5027784;28;20487;-75
2022/11/03 03:13:27;;;;;;;8.17;4.80;;;8.90;73.90;;;;;;5041544;28;20978;-75
2022/11/03 03:16:06;;;;;;;9.20;4.90;;;8.90;73.90;;;;;;5031297;28;20463;-75
2022/11/03 03:18:47;;;;;;;9.33;5.00;;;8.90;73.80;;;;;;5029403;28;20634;-76
2022/11/03 03:21:21;;;;;;;9.80;5.47;;;8.80;73.90;;;;;;5029215;28;20448;-75
2022/11/03 03:23:54;;;;;;;8.93;4.40;;;8.80;73.90;;;;;;5028698;28;20570;-76
2022/11/03 03:26:26;;;;;;;8.55;4.25;;;8.80;73.90;;;;;;5028164;28;20460;-76
2022/11/03 03:28:59;;;;;;;6.40;4.43;;;8.80;73.80;;;;;;5026448;28;20566;-75
2022/11/03 03:31:32;;;;;;;7.13;4.20;;;8.70;73.80;;;;;;5029510;28;20501;-75
2022/11/03 03:34:01;;;;;;;7.23;4.50;;;8.70;73.80;;;;;;5031240;28;20528;-75
2022/11/03 03:36:46;;;;;;;9.30;3.78;;;8.70;73.90;;;;;;5034560;28;20547;-74
2022/11/03 03:39:17;;;;;;;8.83;5.13;;;8.70;73.90;;;;;;5021664;28;21087;-74
2022/11/03 03:41:47;;;;;;;47.57;18.00;;;8.70;73.90;;;;;;5027734;28;20467;-74
2022/11/03 03:44:17;;;;;;;74.65;29.33;;;8.70;73.90;;;;;;5032467;28;20488;-74
2022/11/03 03:46:51;;;;;;;113.50;42.45;;;8.60;73.90;;;;;;5028836;28;20221;-75
2022/11/03 03:49:19;;;;;;;68.03;25.60;;;8.60;73.90;;;;;;5026682;28;20212;-74
2022/11/03 03:51:49;;;;;;;26.50;11.10;;;8.60;73.80;;;;;;5029879;28;21015;-74
2022/11/03 03:54:17;;;;;;;15.95;6.90;;;8.60;73.80;;;;;;5030352;28;20541;-75
2022/11/03 03:56:48;;;;;;;11.90;6.47;;;8.50;74.00;;;;;;5024151;28;20217;-75
2022/11/03 03:59:17;;;;;;;14.77;8.23;;;8.50;74.00;;;;;;5027065;28;21295;-75
2022/11/03 04:01:45;;;;;;;18.63;8.18;;;8.50;74.00;;;;;;5026280;28;20448;-75
2022/11/03 04:04:13;;;;;;;15.77;8.07;;;8.50;74.00;;;;;;5032121;28;20360;-75
2022/11/03 04:06:41;;;;;;;10.60;6.53;;;8.50;74.00;;;;;;5029030;28;20586;-74
2022/11/03 04:09:09;;;;;;;11.50;5.45;;;8.50;74.00;;;;;;5025136;28;20800;-76
2022/11/03 04:22:58;;;;;;;9.77;6.00;;;8.50;74.10;;;;;;5042770;28;20214;-74
2022/11/03 04:25:26;;;;;;;9.40;5.93;;;8.50;74.00;;;;;;5028701;28;20252;-74
2022/11/03 04:27:54;;;;;;;14.53;6.37;;;8.40;74.00;;;;;;5023390;28;20916;-75
2022/11/03 04:30:25;;;;;;;27.77;13.35;;;8.40;74.00;;;;;;5025246;28;20453;-74
2022/11/03 04:32:53;;;;;;;23.67;12.40;;;8.40;73.90;;;;;;5023270;28;20205;-74
2022/11/03 04:35:23;;;;;;;20.23;9.70;;;8.40;73.90;;;;;;5027485;28;20955;-74
2022/11/03 04:37:55;;;;;;;32.90;13.90;;;8.40;74.00;;;;;;5023304;28;20552;-74
2022/11/03 04:40:24;;;;;;;59.28;23.50;;;8.40;73.90;;;;;;5030066;28;20205;-74
2022/11/03 04:42:52;;;;;;;21.27;11.00;;;8.30;73.90;;;;;;5026543;28;20671;-74
2022/11/03 04:45:28;;;;;;;16.53;8.70;;;8.30;73.90;;;;;;5019041;28;20642;-74
2022/11/03 04:47:59;;;;;;;10.88;5.85;;;8.30;73.90;;;;;;5027001;28;20487;-74
2022/11/03 04:50:27;;;;;;;9.80;5.93;;;8.30;73.80;;;;;;5029398;28;20205;-74
2022/11/03 04:52:58;;;;;;;14.15;6.80;;;8.30;73.90;;;;;;5027964;28;20208;-74
2022/11/03 04:55:27;;;;;;;11.38;5.70;;;8.30;73.90;;;;;;5025699;28;20244;-74
2022/11/03 04:57:58;;;;;;;9.82;4.63;;;8.30;73.80;;;;;;5023991;28;20263;-75
2022/11/03 05:00:27;;;;;;;7.72;4.50;;;8.30;73.90;;;;;;5030958;28;20615;-75
2022/11/03 05:02:56;;;;;;;11.35;6.90;;;8.30;74.00;;;;;;5027123;28;20263;-75
2022/11/03 05:05:26;;;;;;;7.87;5.00;;;8.30;73.90;;;;;;5026423;28;20298;-75
2022/11/03 05:07:56;;;;;;;8.23;4.15;;;8.30;73.80;;;;;;5028582;28;20835;-75
2022/11/03 05:10:26;;;;;;;9.25;4.68;;;8.20;73.70;;;;;;5029397;28;20209;-75
2022/11/03 05:12:54;;;;;;;7.47;4.80;;;8.20;73.70;;;;;;5025819;28;20294;-75
2022/11/03 05:15:31;;;;;;;6.50;3.67;;;8.20;73.70;;;;;;5025190;28;20482;-75
2022/11/03 05:18:01;;;;;;;7.50;3.70;;;8.10;73.60;;;;;;5027691;28;20205;-75
2022/11/03 05:20:36;;;;;;;8.05;4.47;;;8.10;73.60;;;;;;5027163;28;20209;-75
2022/11/03 05:23:05;;;;;;;7.88;4.82;;;8.10;73.60;;;;;;5025007;28;20200;-75
2022/11/03 05:25:40;;;;;;;6.57;4.00;;;8.10;73.60;;;;;;5026119;28;20224;-75
2022/11/03 05:28:20;;;;;;;10.25;4.97;;;8.10;73.70;;;;;;5024310;28;20475;-75
2022/11/03 05:30:50;;;;;;;8.65;4.70;;;8.10;73.70;;;;;;5026053;28;20201;-74
2022/11/03 05:33:26;;;;;;;7.70;4.50;;;8.00;73.60;;;;;;5023052;28;20264;-75
2022/11/03 05:35:55;;;;;;;8.20;4.60;;;8.00;73.70;;;;;;5026667;28;20216;-74
2022/11/03 05:38:23;;;;;;;12.30;4.40;;;8.00;73.70;;;;;;5026489;28;20220;-75
2022/11/03 05:40:53;;;;;;;8.15;4.65;;;8.00;73.80;;;;;;5019785;28;20208;-75
2022/11/03 05:43:22;;;;;;;9.05;5.32;;;8.00;73.80;;;;;;5025642;28;20909;-75
2022/11/03 05:45:53;;;;;;;6.93;4.90;;;8.00;73.80;;;;;;5030738;28;20213;-74
2022/11/03 05:48:31;;;;;;;7.82;4.63;;;8.00;73.80;;;;;;5032553;28;21179;-75
2022/11/03 05:51:00;;;;;;;6.95;4.22;;;8.00;73.90;;;;;;5025530;28;20212;-74
2022/11/03 05:53:30;;;;;;;9.35;5.20;;;8.00;74.00;;;;;;5022778;28;20210;-74
2022/11/03 05:56:01;;;;;;;8.38;4.80;;;8.00;74.00;;;;;;5028345;28;20217;-75
2022/11/03 05:58:34;;;;;;;8.10;5.40;;;8.00;74.10;;;;;;5024373;28;20209;-75
2022/11/03 06:01:10;;;;;;;8.13;4.47;;;8.00;74.10;;;;;;5025379;28;20217;-75
2022/11/03 06:03:39;;;;;;;7.10;4.35;;;8.10;74.20;;;;;;5026070;28;20239;-74
2022/11/03 06:06:16;;;;;;;9.07;4.35;;;8.10;74.20;;;;;;5025604;28;20206;-75
2022/11/03 06:08:44;;;;;;;7.05;4.63;;;8.10;74.30;;;;;;5022599;28;20283;-75
2022/11/03 06:11:21;;;;;;;7.40;4.60;;;8.10;74.30;;;;;;5026820;28;20205;-75
2022/11/03 06:13:49;;;;;;;7.55;4.50;;;8.10;74.40;;;;;;5023763;28;20236;-75
2022/11/03 06:16:37;;;;;;;7.55;4.65;;;8.10;74.40;;;;;;5030310;28;20255;-75
2022/11/03 06:19:20;;;;;;;10.10;4.97;;;8.10;74.40;;;;;;5030037;28;20248;-74
2022/11/03 06:21:51;;;;;;;9.90;5.30;;;8.10;74.40;;;;;;5020024;28;20495;-74
2022/11/03 06:24:22;;;;;;;7.75;4.60;;;8.10;74.60;;;;;;5031844;28;20217;-74
2022/11/03 06:26:52;;;;;;;7.00;4.10;;;8.10;74.60;;;;;;5031840;28;20233;-75
2022/11/03 06:29:21;;;;;;;8.77;4.85;;;8.10;74.70;;;;;;5022793;28;20229;-74
2022/11/03 06:31:55;;;;;;;7.18;4.60;;;8.10;74.70;;;;;;5025694;28;20225;-74
2022/11/03 06:34:37;;;;;;;7.32;4.18;;;8.10;74.80;;;;;;5025811;28;20266;-74
2022/11/03 06:37:19;;;;;;;7.78;4.10;;;8.10;74.90;;;;;;5023443;28;20255;-74
2022/11/03 06:39:48;;;;;;;7.47;4.50;;;8.10;74.90;;;;;;5025562;28;20630;-74
2022/11/03 06:42:19;;;;;;;24.88;4.97;;;8.10;74.90;;;;;;5023360;28;20295;-74
2022/11/03 06:44:50;;;;;;;6.22;3.88;;;8.10;75.00;;;;;;5025454;28;20225;-74
2022/11/03 06:47:24;;;;;;;10.70;3.95;;;8.10;74.90;;;;;;5027202;28;20209;-73
2022/11/03 06:49:54;;;;;;;12.35;5.70;;;8.10;75.00;;;;;;5019227;28;20630;-73
2022/11/03 06:52:28;;;;;;;13.37;6.50;;;8.10;75.00;;;;;;5029815;28;20277;-76
2022/11/03 06:55:08;;;;;;;18.43;8.00;;;8.10;75.10;;;;;;5032773;28;20541;-73
2022/11/03 06:57:46;;;;;;;10.93;5.75;;;8.00;75.10;;;;;;5024401;28;20989;-74
2022/11/03 07:00:20;;;;;;;9.60;5.82;;;8.00;75.20;;;;;;5026421;28;20249;-74
2022/11/03 07:03:07;;;;;;;9.43;5.40;;;8.00;75.30;;;;;;5016643;28;20239;-74
2022/11/03 07:05:37;;;;;;;9.57;5.32;;;8.00;75.40;;;;;;5028149;28;20228;-74
2022/11/03 07:08:17;;;;;;;8.30;4.70;;;8.10;75.50;;;;;;5030941;28;20845;-74
2022/11/03 07:10:46;;;;;;;6.70;3.85;;;8.10;75.50;;;;;;5026934;28;20482;-74
2022/11/03 07:13:27;;;;;;;7.28;4.35;;;8.10;75.40;;;;;;5019265;28;20201;-75
2022/11/03 07:16:03;;;;;;;7.43;4.70;;;8.10;75.40;;;;;;5026035;28;20197;-74
2022/11/03 07:18:35;;;;;;;7.97;4.97;;;8.10;75.40;;;;;;5025826;28;20463;-74
2022/11/03 07:21:24;;;;;;;7.30;4.40;;;8.20;75.40;;;;;;5026513;28;20267;-75
2022/11/03 07:23:53;;;;;;;9.35;4.55;;;8.20;75.50;;;;;;5027433;28;20260;-74
2022/11/03 07:26:20;;;;;;;8.43;4.75;;;8.20;75.50;;;;;;5028138;28;20197;-74
2022/11/03 07:28:49;;;;;;;7.95;5.00;;;8.30;75.50;;;;;;5031275;28;20220;-74
2022/11/03 07:31:23;;;;;;;8.50;4.55;;;8.30;75.50;;;;;;5027934;28;20280;-74
2022/11/03 07:33:58;;;;;;;11.05;5.47;;;8.30;75.60;;;;;;5028670;28;20589;-74
2022/11/03 07:36:31;;;;;;;8.43;5.17;;;8.30;75.60;;;;;;5029292;28;20211;-74
2022/11/03 07:39:02;;;;;;;8.57;5.00;;;8.40;75.60;;;;;;5027470;28;20471;-73
2022/11/03 07:41:33;;;;;;;10.53;5.97;;;8.40;75.50;;;;;;5027927;28;20209;-74
2022/11/03 07:44:02;;;;;;;9.48;5.53;;;8.40;75.60;;;;;;5027186;28;20529;-74
2022/11/03 07:46:30;;;;;;;14.45;6.63;;;8.40;75.70;;;;;;5034548;28;20236;-74
2022/11/03 07:49:02;;;;;;;11.20;6.65;;;8.40;75.60;;;;;;5029998;28;20217;-74
2022/11/03 07:51:32;;;;;;;12.45;5.65;;;8.40;75.70;;;;;;5028719;28;20209;-74
2022/11/03 07:54:04;;;;;;;8.65;5.60;;;8.40;75.70;;;;;;5026817;28;20221;-74
2022/11/03 07:56:36;;;;;;;9.50;6.00;;;8.40;75.80;;;;;;5027759;28;20663;-74
2022/11/03 07:59:13;;;;;;;8.93;4.72;;;8.40;75.90;;;;;;5028596;28;20284;-74
2022/11/03 08:01:43;;;;;;;9.07;5.30;;;8.50;76.00;;;;;;5019798;28;20217;-74
2022/11/03 08:04:19;;;;;;;9.43;4.70;;;8.50;76.00;;;;;;5027335;28;20476;-74
2022/11/03 08:06:47;;;;;;;9.60;5.70;;;8.50;76.00;;;;;;5027409;28;20451;-74
2022/11/03 08:09:15;;;;;;;9.02;5.60;;;8.50;76.10;;;;;;5044593;28;20468;-74
2022/11/03 08:11:43;;;;;;;9.17;5.63;;;8.50;76.20;;;;;;5028761;28;20233;-74
2022/11/03 08:14:11;;;;;;;10.53;5.53;;;8.60;76.20;;;;;;5024553;28;20480;-74
2022/11/03 08:16:39;;;;;;;9.07;5.33;;;8.60;76.30;;;;;;5030082;28;20951;-74
2022/11/03 08:19:08;;;;;;;9.20;6.20;;;8.60;76.40;;;;;;5028577;28;20452;-74
2022/11/03 08:21:37;;;;;;;9.80;6.00;;;8.60;76.50;;;;;;5022978;28;20470;-74
2022/11/03 08:24:06;;;;;;;17.15;6.47;;;8.70;76.50;;;;;;5029342;28;20767;-74
2022/11/03 08:26:34;;;;;;;10.97;7.13;;;8.70;76.50;;;;;;5024228;28;20217;-74
2022/11/03 08:29:01;;;;;;;17.57;7.57;;;8.70;76.60;;;;;;5023853;28;20554;-73
2022/11/03 08:31:29;;;;;;;11.80;7.22;;;8.80;76.70;;;;;;5029810;28;20455;-74
2022/11/03 08:33:57;;;;;;;10.97;6.80;;;8.80;76.60;;;;;;5028448;28;20254;-73
2022/11/03 08:36:25;;;;;;;12.03;6.90;;;8.80;76.70;;;;;;5016560;28;20493;-74
2022/11/03 08:38:54;;;;;;;13.63;7.10;;;8.80;76.90;;;;;;5027864;28;20448;-74
2022/11/03 08:41:22;;;;;;;13.17;6.57;;;8.90;76.90;;;;;;5028117;28;20482;-73
2022/11/03 08:43:50;;;;;;;15.13;8.10;;;8.90;76.90;;;;;;5025821;28;20484;-74
2022/11/03 08:46:19;;;;;;;13.60;8.33;;;8.90;77.00;;;;;;5028361;28;20455;-74
2022/11/03 08:48:48;;;;;;;13.03;7.90;;;9.00;77.10;;;;;;5025921;28;20448;-74
2022/11/03 08:51:16;;;;;;;19.23;8.65;;;9.00;77.10;;;;;;5028368;28;21405;-74
2022/11/03 08:53:45;;;;;;;14.23;8.20;;;9.00;77.20;;;;;;5026570;28;20718;-74
2022/11/03 08:56:14;;;;;;;13.75;8.25;;;9.00;77.20;;;;;;5023092;28;20536;-74
2022/11/03 08:58:46;;;;;;;14.27;8.10;;;9.10;77.20;;;;;;5025767;28;20706;-74
2022/11/03 09:01:14;;;;;;;12.37;7.90;;;9.10;77.30;;;;;;5026804;28;20448;-74
2022/11/03 09:03:42;;;;;;;16.37;8.80;;;9.10;77.40;;;;;;5026555;28;20480;-74
2022/11/03 09:06:10;;;;;;;13.47;8.40;;;9.20;77.40;;;;;;5024890;28;20453;-73
2022/11/03 09:08:38;;;;;;;13.43;8.57;;;9.20;77.50;;;;;;5023877;28;20857;-74
2022/11/03 09:11:28;;;;;;;13.83;8.83;;;9.30;77.60;;;;;;5020622;28;20558;-73
2022/11/03 09:13:56;;;;;;;15.20;9.23;;;9.30;77.60;;;;;;5027680;28;20546;-74
2022/11/03 09:16:25;;;;;;;13.77;8.67;;;9.40;77.60;;;;;;5026667;28;20460;-74
2022/11/03 09:18:53;;;;;;;13.03;8.07;;;9.40;77.70;;;;;;5024396;28;20462;-74
2022/11/03 09:21:21;;;;;;;13.85;9.30;;;9.40;77.70;;;;;;5026689;28;21358;-74
2022/11/03 09:23:49;;;;;;;14.77;9.57;;;9.40;77.70;;;;;;5023755;28;20229;-74
2022/11/03 09:26:16;;;;;;;19.17;11.00;;;9.40;77.80;;;;;;5021578;28;20487;-73
2022/11/03 09:28:46;;;;;;;19.97;12.80;;;9.50;77.90;;;;;;5026463;28;20483;-74
2022/11/03 09:31:14;;;;;;;19.90;12.67;;;9.50;78.00;;;;;;5031159;28;20530;-74
2022/11/03 09:33:42;;;;;;;18.90;12.57;;;9.60;78.10;;;;;;5026383;28;20467;-74
2022/11/03 09:36:10;;;;;;;19.77;11.90;;;9.60;78.20;;;;;;5029006;28;20451;-73
2022/11/03 09:38:38;;;;;;;16.40;11.03;;;9.70;78.20;;;;;;5024042;28;20458;-74
2022/11/03 09:41:06;;;;;;;21.50;11.73;;;9.70;78.30;;;;;;5026709;28;20455;-74
2022/11/03 09:43:57;;;;;;;17.27;10.47;;;9.70;78.40;;;;;;5026272;28;20483;-74
2022/11/03 09:46:26;;;;;;;21.40;11.93;;;9.80;78.50;;;;;;5022951;28;20530;-73
2022/11/03 09:48:55;;;;;;;17.60;11.00;;;9.90;78.50;;;;;;5026584;28;20891;-74
2022/11/03 09:51:25;;;;;;;23.63;12.23;;;9.90;78.50;;;;;;5023214;28;20523;-74
2022/11/03 09:53:56;;;;;;;21.43;11.50;;;9.90;78.50;;;;;;5025045;28;20475;-74
2022/11/03 09:56:25;;;;;;;20.40;11.53;;;10.00;78.60;;;;;;5026083;28;20468;-74
2022/11/03 09:58:55;;;;;;;18.20;11.37;;;10.00;78.60;;;;;;5025438;28;20517;-73
2022/11/03 10:01:23;;;;;;;18.80;11.90;;;10.00;78.70;;;;;;5022996;28;20460;-73
2022/11/03 10:03:51;;;;;;;18.20;10.93;;;10.10;78.80;;;;;;5025582;28;20884;-74
2022/11/03 10:06:20;;;;;;;16.87;10.90;;;10.10;78.80;;;;;;5021524;28;20487;-75
2022/11/03 10:08:49;;;;;;;24.93;11.70;;;10.10;78.80;;;;;;5021684;28;20460;-73
2022/11/03 10:11:17;;;;;;;16.63;10.83;;;10.20;78.80;;;;;;5024348;28;20488;-74
2022/11/03 10:13:47;;;;;;;19.20;12.17;;;10.20;78.90;;;;;;5020932;28;20890;-73
2022/11/03 10:16:19;;;;;;;21.47;13.57;;;10.20;78.90;;;;;;5023392;28;20968;-75
2022/11/03 10:18:48;;;;;;;18.53;12.10;;;10.20;78.90;;;;;;5025517;28;20451;-73
2022/11/03 10:21:18;;;;;;;17.37;11.80;;;10.20;79.00;;;;;;5026959;28;20494;-75
2022/11/03 10:23:48;;;;;;;19.50;13.40;;;10.20;79.10;;;;;;5024522;28;20471;-73
2022/11/03 10:26:18;;;;;;;16.90;11.80;;;10.20;79.10;;;;;;5028550;28;20447;-74
2022/11/03 10:29:00;;;;;;;19.87;13.90;;;10.20;79.10;;;;;;5028177;28;20444;-74
2022/11/03 10:31:35;;;;;;;23.50;14.07;;;10.30;79.20;;;;;;5031777;28;20491;-75
2022/11/03 10:34:03;;;;;;;22.20;13.90;;;10.30;79.10;;;;;;5026873;28;20600;-73
2022/11/03 10:36:33;;;;;;;27.07;14.47;;;10.30;79.20;;;;;;5033278;28;20463;-75
2022/11/03 10:39:25;;;;;;;21.77;13.90;;;10.30;79.20;;;;;;5027714;28;20451;-74
2022/11/03 10:41:57;;;;;;;23.30;14.43;;;10.30;79.30;;;;;;5026827;28;20525;-74
2022/11/03 10:44:27;;;;;;;23.37;15.37;;;10.30;79.30;;;;;;5026388;28;20521;-74
2022/11/03 10:46:58;;;;;;;25.37;15.10;;;10.30;79.40;;;;;;5026708;28;20470;-74
2022/11/03 10:49:28;;;;;;;23.43;15.33;;;10.30;79.50;;;;;;5019310;28;20472;-72
2022/11/03 10:52:19;;;;;;;23.63;14.03;;;10.40;79.50;;;;;;5028524;28;20483;-73
2022/11/03 10:54:48;;;;;;;23.10;14.63;;;10.40;79.50;;;;;;5021620;28;20487;-72
2022/11/03 10:57:17;;;;;;;24.13;14.80;;;10.40;79.60;;;;;;5029422;28;20520;-73
2022/11/03 10:59:49;;;;;;;24.63;15.00;;;10.40;79.70;;;;;;5030387;28;20452;-73
2022/11/03 11:02:20;;;;;;;22.73;14.90;;;10.50;79.70;;;;;;5027995;28;20471;-72
2022/11/03 11:04:49;;;;;;;24.13;15.73;;;10.50;79.70;;;;;;5023445;28;20494;-74
2022/11/03 11:07:21;;;;;;;25.03;14.50;;;10.50;79.70;;;;;;5025596;28;20486;-73
2022/11/03 11:09:49;;;;;;;22.77;14.93;;;10.50;79.80;;;;;;5025611;28;20453;-74
2022/11/03 11:12:18;;;;;;;26.03;15.90;;;10.60;79.80;;;;;;5022813;28;20564;-75
2022/11/03 11:14:57;;;;;;;21.40;14.73;;;10.60;79.80;;;;;;5026395;28;21045;-74
2022/11/03 11:17:46;;;;;;;25.83;17.40;;;10.60;79.80;;;;;;5028936;28;20905;-75
2022/11/03 11:20:41;;;;;;;26.83;14.07;;;10.70;80.00;;;;;;5028048;28;20452;-72
2022/11/03 11:23:51;;;;;;;22.40;15.50;;;10.70;80.10;;;;;;5022732;28;20455;-75
2022/11/03 11:26:40;;;;;;;25.07;14.97;;;10.80;80.30;;;;;;5027568;28;20483;-76
2022/11/03 11:29:35;;;;;;;22.03;15.17;;;10.80;80.20;;;;;;5029071;28;20555;-74
2022/11/03 11:32:39;;;;;;;22.80;15.23;;;10.90;80.30;;;;;;5015117;28;21099;-74
2022/11/03 11:35:09;;;;;;;21.17;13.77;;;10.90;80.30;;;;;;4994648;28;20511;-75
2022/11/03 11:37:38;;;;;;;18.60;12.87;;;10.90;80.30;;;;;;5033813;28;21039;-73
2022/11/03 11:40:13;;;;;;;23.40;14.33;;;11.00;80.40;;;;;;5037158;28;21009;-73
2022/11/03 11:43:24;;;;;;;23.57;14.67;;;11.00;80.60;;;;;;5032131;28;20517;-75
2022/11/03 11:46:33;;;;;;;21.87;14.33;;;11.10;80.60;;;;;;5033062;28;20900;-73
2022/11/03 11:49:16;;;;;;;20.60;14.90;;;11.10;80.60;;;;;;5031364;28;20558;-74
2022/11/03 11:51:45;;;;;;;21.97;15.13;;;11.10;80.70;;;;;;5030859;28;20480;-74
2022/11/03 11:54:18;;;;;;;24.03;13.53;;;11.10;80.70;;;;;;5030685;28;20956;-73
2022/11/03 11:56:48;;;;;;;17.73;13.10;;;11.20;80.90;;;;;;5028924;28;20460;-74
2022/11/03 11:59:19;;;;;;;23.10;15.13;;;11.20;80.90;;;;;;5031162;28;20463;-73
2022/11/03 12:01:54;;;;;;;23.17;15.27;;;11.20;81.00;;;;;;5031882;28;20787;-74
2022/11/03 12:04:26;;;;;;;24.80;15.60;;;11.30;81.10;;;;;;5028400;28;20886;-72
2022/11/03 12:06:56;;;;;;;20.90;14.00;;;11.30;81.10;;;;;;5025627;28;20490;-74
2022/11/03 12:09:26;;;;;;;24.00;15.37;;;11.30;81.20;;;;;;5025496;28;20472;-73
2022/11/03 12:11:56;;;;;;;22.30;14.20;;;11.40;81.30;;;;;;5025399;28;20580;-72
2022/11/03 12:14:34;;;;;;;22.27;14.67;;;11.50;81.30;;;;;;5025726;28;20885;-71
2022/11/03 12:17:31;;;;;;;22.43;14.47;;;11.50;81.20;;;;;;5023342;28;20455;-70
2022/11/03 12:19:59;;;;;;;20.13;13.40;;;11.50;81.30;;;;;;5027420;28;20491;-75
2022/11/03 12:22:42;;;;;;;26.37;14.30;;;11.50;81.30;;;;;;5029744;28;20981;-75
2022/11/03 12:25:34;;;;;;;21.03;15.50;;;11.60;81.40;;;;;;5020994;28;20511;-75
2022/11/03 12:28:02;;;;;;;25.40;15.10;;;11.60;81.50;;;;;;5023358;28;20521;-75
2022/11/03 12:30:31;;;;;;;24.17;13.67;;;11.60;81.50;;;;;;5027795;28;20512;-76
2022/11/03 12:33:06;;;;;;;20.77;14.23;;;11.60;81.60;;;;;;5027848;28;20887;-74
2022/11/03 12:35:34;;;;;;;23.00;15.10;;;11.70;81.60;;;;;;5024322;28;20984;-74
2022/11/03 12:38:03;;;;;;;22.60;14.87;;;11.70;81.60;;;;;;5023009;28;20464;-76
2022/11/03 12:40:31;;;;;;;24.83;14.90;;;11.80;81.70;;;;;;5026525;28;20816;-76
2022/11/03 12:42:59;;;;;;;22.17;13.87;;;11.80;81.80;;;;;;5023143;28;21249;-75
2022/11/03 12:45:27;;;;;;;21.87;13.87;;;11.80;81.80;;;;;;5025792;28;21017;-75
2022/11/03 12:47:55;;;;;;;22.33;14.33;;;11.90;81.70;;;;;;5026384;28;20498;-74
2022/11/03 12:50:23;;;;;;;25.50;15.20;;;11.90;81.70;;;;;;5028301;28;21015;-76
2022/11/03 12:52:51;;;;;;;23.43;15.47;;;11.90;81.80;;;;;;5028248;28;20492;-75
2022/11/03 12:55:20;;;;;;;21.20;14.20;;;11.90;81.80;;;;;;5021258;28;21009;-75
2022/11/03 12:57:48;;;;;;;21.67;14.50;;;11.90;81.80;;;;;;5026358;28;21017;-75
2022/11/03 13:00:17;;;;;;;22.53;15.43;;;11.90;81.80;;;;;;5035557;28;20451;-74
2022/11/03 13:02:45;;;;;;;22.70;15.90;;;11.90;81.80;;;;;;5025908;28;20473;-73
2022/11/03 13:05:14;;;;;;;24.20;14.80;;;11.90;81.80;;;;;;5012270;28;20800;-76
2022/11/03 13:07:42;;;;;;;27.37;16.10;;;11.90;81.80;;;;;;5022222;28;20487;-72
2022/11/03 13:10:10;;;;;;;31.97;16.40;;;11.90;81.90;;;;;;5020494;28;20562;-74
2022/11/03 13:12:40;;;;;;;24.47;16.10;;;11.90;81.90;;;;;;5027454;28;21154;-74
2022/11/03 13:15:12;;;;;;;27.70;16.20;;;11.90;82.00;;;;;;5017874;28;20487;-74
2022/11/03 13:17:40;;;;;;;27.43;16.67;;;11.90;82.00;;;;;;5026209;28;20818;-74
2022/11/03 13:20:28;;;;;;;26.30;15.00;;;11.90;82.10;;;;;;5023845;28;20481;-73